createdAt,value
2023-08-27T00:00:19.436Z,227.35
2023-08-27T00:02:46.888Z,352.73
2023-08-27T00:05:14.426Z,335.92
2023-08-27T00:07:41.923Z,345.48
2023-08-27T00:10:09.733Z,487.42
2023-08-27T00:12:36.984Z,523.45
2023-08-27T00:15:05.043Z,687.40
2023-08-27T00:17:32.333Z,1109.07
2023-08-27T00:19:59.730Z,143.55
2023-08-27T00:22:27.016Z,83.03
2023-08-27T00:24:54.214Z,74.22
2023-08-27T00:27:21.408Z,74.85
2023-08-27T00:29:49.339Z,69.23
2023-08-27T00:32:25.667Z,87.15
2023-08-27T00:34:54.522Z,73.78
2023-08-27T00:37:23.137Z,90.05
2023-08-27T00:39:50.520Z,106.95
2023-08-27T00:42:17.863Z,96.88
2023-08-27T00:44:45.154Z,118.20
2023-08-27T00:47:12.931Z,126.35
2023-08-27T00:49:40.793Z,134.68
2023-08-27T00:52:09.499Z,146.23
2023-08-27T00:54:38.572Z,162.10
2023-08-27T00:57:05.975Z,175.98
2023-08-27T00:59:35.219Z,135.50
2023-08-27T01:02:03.758Z,146.80
2023-08-27T01:04:31.019Z,183.40
2023-08-27T01:07:03.468Z,131.25
2023-08-27T01:09:30.775Z,134.13
2023-08-27T01:12:09.975Z,126.07
2023-08-27T01:14:38.452Z,127.43
2023-08-27T01:17:06.180Z,26.52
2023-08-27T01:19:33.650Z,99.90
2023-08-27T01:22:00.889Z,120.82
2023-08-27T01:24:28.066Z,138.38
2023-08-27T01:27:06.575Z,186.20
2023-08-27T01:29:42.989Z,206.75
2023-08-27T01:32:17.194Z,145.88
2023-08-27T01:34:45.221Z,232.60
2023-08-27T01:37:15.954Z,197.45
2023-08-27T01:39:46.016Z,166.05
2023-08-27T01:42:13.978Z,106.23
2023-08-27T01:44:41.458Z,154.70
2023-08-27T01:47:08.941Z,164.60
2023-08-27T01:49:36.518Z,183.98
2023-08-27T01:52:03.798Z,214.73
2023-08-27T01:54:34.239Z,256.42
2023-08-27T01:57:01.574Z,276.95
2023-08-27T01:59:28.837Z,1075.43
2023-08-27T02:01:56.623Z,1180.63
2023-08-27T02:04:24.048Z,1222.32
2023-08-27T02:06:51.254Z,27.33
2023-08-27T02:09:18.595Z,22.55
2023-08-27T02:11:47.614Z,44.83
2023-08-27T02:14:14.857Z,8.10
2023-08-27T02:16:42.139Z,10.70
2023-08-27T02:19:09.429Z,8.80
2023-08-27T02:21:36.673Z,9.17
2023-08-27T02:24:04.008Z,21.15
2023-08-27T02:26:31.326Z,45.17
2023-08-27T02:28:58.617Z,41.73
2023-08-27T02:31:25.891Z,46.08
2023-08-27T02:33:53.142Z,47.38
2023-08-27T02:36:20.590Z,60.00
2023-08-27T02:38:47.856Z,22.83
2023-08-27T02:41:15.098Z,7.68
2023-08-27T02:43:43.786Z,7.43
2023-08-27T02:46:12.376Z,16.38
2023-08-27T02:48:39.654Z,10.00
2023-08-27T02:51:06.888Z,3.67
2023-08-27T02:53:34.109Z,4.18
2023-08-27T02:56:01.347Z,4.93
2023-08-27T02:58:28.684Z,7.17
2023-08-27T03:00:56.274Z,12.80
2023-08-27T03:03:23.637Z,14.95
2023-08-27T03:05:51.094Z,15.73
2023-08-27T03:08:18.374Z,16.63
2023-08-27T03:10:45.711Z,28.10
2023-08-27T03:13:13.012Z,27.17
2023-08-27T03:15:40.276Z,21.48
2023-08-27T03:18:07.974Z,26.40
2023-08-27T03:20:35.327Z,18.10
2023-08-27T03:23:03.422Z,29.73
2023-08-27T03:25:30.633Z,17.48
2023-08-27T03:27:57.831Z,13.67
2023-08-27T03:30:25.085Z,12.52
2023-08-27T03:32:53.362Z,10.60
2023-08-27T03:35:20.676Z,54.27
2023-08-27T03:37:47.944Z,124.72
2023-08-27T03:40:15.130Z,147.05
2023-08-27T03:42:42.357Z,158.27
2023-08-27T03:45:10.220Z,161.48
2023-08-27T03:47:37.538Z,56.57
2023-08-27T03:50:05.780Z,105.50
2023-08-27T03:52:35.527Z,238.15
2023-08-27T03:55:03.797Z,265.73
2023-08-27T03:57:31.441Z,277.52
2023-08-27T03:59:58.681Z,458.55
2023-08-27T04:02:26.003Z,474.70
2023-08-27T04:04:53.240Z,566.42
2023-08-27T04:07:20.724Z,614.15
2023-08-27T04:09:47.955Z,1013.88
2023-08-27T04:12:15.211Z,770.13
2023-08-27T04:14:42.430Z,815.53
2023-08-27T04:17:09.708Z,972.45
2023-08-27T04:19:36.939Z,773.75
2023-08-27T04:22:04.193Z,822.80
2023-08-27T04:24:32.123Z,831.13
2023-08-27T04:26:59.942Z,1048.90
2023-08-27T04:29:30.517Z,1104.53
2023-08-27T04:31:57.844Z,1015.78
2023-08-27T04:34:25.082Z,1020.72
2023-08-27T04:36:52.417Z,530.38
2023-08-27T04:39:19.643Z,777.65
2023-08-27T04:41:47.872Z,650.50
2023-08-27T04:44:15.442Z,402.75
2023-08-27T04:46:42.953Z,395.58
2023-08-27T04:49:10.139Z,670.45
2023-08-27T04:51:37.387Z,825.85
2023-08-27T04:54:04.812Z,1055.00
2023-08-27T04:56:32.016Z,1152.03
2023-08-27T04:58:59.270Z,1123.95
2023-08-27T05:01:28.227Z,363.10
2023-08-27T05:03:55.539Z,307.23
2023-08-27T05:06:22.936Z,373.05
2023-08-27T05:08:51.199Z,238.63
2023-08-27T05:11:19.200Z,226.23
2023-08-27T05:13:46.589Z,286.40
2023-08-27T05:16:13.889Z,378.90
2023-08-27T05:18:43.337Z,597.17
2023-08-27T05:21:10.573Z,923.70
2023-08-27T05:23:37.829Z,1112.55
2023-08-27T05:26:05.068Z,395.63
2023-08-27T05:28:32.250Z,492.00
2023-08-27T05:30:59.872Z,644.33
2023-08-27T05:33:27.126Z,845.63
2023-08-27T05:35:56.020Z,814.42
2023-08-27T05:38:23.459Z,892.40
2023-08-27T05:40:53.771Z,545.80
2023-08-27T05:43:21.243Z,435.80
2023-08-27T05:45:48.446Z,437.92
2023-08-27T05:48:17.479Z,376.38
2023-08-27T05:50:45.655Z,660.25
2023-08-27T05:53:13.657Z,861.67
2023-08-27T05:55:40.918Z,198.53
2023-08-27T05:58:08.156Z,169.48
2023-08-27T06:00:35.987Z,173.25
2023-08-27T06:03:04.900Z,153.63
2023-08-27T06:05:32.587Z,133.23
2023-08-27T06:08:03.773Z,141.52
2023-08-27T06:10:31.202Z,141.57
2023-08-27T06:12:59.142Z,143.85
2023-08-27T06:15:28.531Z,166.00
2023-08-27T06:17:55.932Z,186.73
2023-08-27T06:20:23.209Z,184.38
2023-08-27T06:22:50.591Z,218.05
2023-08-27T06:25:25.342Z,192.65
2023-08-27T06:27:54.937Z,55.00
2023-08-27T06:30:22.745Z,57.78
2023-08-27T06:32:50.835Z,218.02
2023-08-27T06:35:18.847Z,200.83
2023-08-27T06:37:46.162Z,26.35
2023-08-27T06:40:16.078Z,240.52
2023-08-27T06:42:43.768Z,122.20
2023-08-27T06:45:17.032Z,32.10
2023-08-27T06:47:44.721Z,38.17
2023-08-27T06:50:11.980Z,48.05
2023-08-27T06:52:39.330Z,50.72
2023-08-27T06:55:06.797Z,207.30
2023-08-27T06:57:35.059Z,116.38
2023-08-27T07:00:03.754Z,94.93
2023-08-27T07:02:31.135Z,152.15
2023-08-27T07:04:58.733Z,140.38
2023-08-27T07:07:26.989Z,141.63
2023-08-27T07:09:54.371Z,100.35
2023-08-27T07:12:21.595Z,122.57
2023-08-27T07:14:50.523Z,133.25
2023-08-27T07:17:17.755Z,143.10
2023-08-27T07:19:45.005Z,415.92
2023-08-27T07:22:12.723Z,125.82
2023-08-27T07:24:40.012Z,218.60
2023-08-27T07:27:07.297Z,68.65
2023-08-27T07:29:34.505Z,84.50
2023-08-27T07:32:01.792Z,198.55
2023-08-27T07:34:29.146Z,243.88
2023-08-27T07:36:57.068Z,243.35
2023-08-27T07:39:24.299Z,191.32
2023-08-27T07:41:52.144Z,155.23
2023-08-27T07:44:19.700Z,97.60
2023-08-27T07:46:46.929Z,149.45
2023-08-27T07:49:14.260Z,170.05
2023-08-27T07:51:41.512Z,144.43
2023-08-27T07:54:09.264Z,163.20
2023-08-27T07:56:36.626Z,200.27
2023-08-27T07:59:03.852Z,172.30
2023-08-27T08:01:32.103Z,197.52
2023-08-27T08:03:59.761Z,217.80
2023-08-27T08:06:27.129Z,260.83
2023-08-27T08:08:54.630Z,235.77
2023-08-27T08:11:21.829Z,297.67
2023-08-27T08:13:49.102Z,327.88
2023-08-27T08:16:16.382Z,273.08
2023-08-27T08:18:43.685Z,481.45
2023-08-27T08:21:10.874Z,448.90
2023-08-27T08:23:38.165Z,508.17
2023-08-27T08:26:06.852Z,465.20
2023-08-27T08:28:35.666Z,402.93
2023-08-27T08:31:04.256Z,341.75
2023-08-27T08:33:31.610Z,302.52
2023-08-27T08:35:58.877Z,379.80
2023-08-27T08:38:26.964Z,528.08
2023-08-27T08:40:59.756Z,333.70
2023-08-27T08:43:27.054Z,447.58
2023-08-27T08:46:14.685Z,647.70
2023-08-27T08:48:43.211Z,499.60
2023-08-27T08:51:11.887Z,1131.97
2023-08-27T08:53:46.363Z,507.33
2023-08-27T08:56:20.388Z,537.10
2023-08-27T08:58:53.521Z,572.80
2023-08-27T09:01:21.199Z,635.53
2023-08-27T09:03:49.592Z,624.88
2023-08-27T09:06:24.056Z,797.13
2023-08-27T09:08:54.864Z,1011.97
2023-08-27T09:11:22.448Z,310.88
2023-08-27T09:13:49.730Z,603.28
2023-08-27T09:16:17.029Z,620.83
2023-08-27T09:18:44.301Z,869.57
2023-08-27T09:21:11.744Z,803.72
2023-08-27T09:23:39.551Z,1069.13
2023-08-27T09:26:07.368Z,961.20
2023-08-27T09:28:34.930Z,595.20
2023-08-27T09:31:05.489Z,749.40
2023-08-27T09:33:40.986Z,648.38
2023-08-27T09:36:09.278Z,977.75
2023-08-27T09:38:36.754Z,1101.72
2023-08-27T09:41:16.674Z,927.25
2023-08-27T09:43:56.316Z,924.17
2023-08-27T09:46:23.812Z,953.95
2023-08-27T09:49:01.320Z,1068.85
2023-08-27T09:51:31.578Z,1044.95
2023-08-27T09:53:58.858Z,1190.63
2023-08-27T09:56:29.681Z,1209.80
2023-08-27T09:58:57.518Z,1165.43
2023-08-27T10:01:26.833Z,815.07
2023-08-27T10:03:54.767Z,903.30
2023-08-27T10:06:22.269Z,693.83
2023-08-27T10:08:55.593Z,780.55
2023-08-27T10:11:23.957Z,628.60
2023-08-27T10:13:51.436Z,770.22
2023-08-27T10:16:19.868Z,807.97
2023-08-27T10:18:48.043Z,834.53
2023-08-27T10:21:15.685Z,882.85
2023-08-27T10:23:45.009Z,998.45
2023-08-27T10:26:12.383Z,1046.53
2023-08-27T10:28:40.951Z,866.83
2023-08-27T10:31:08.805Z,900.35
2023-08-27T10:33:36.034Z,918.28
2023-08-27T10:36:25.838Z,996.10
2023-08-27T10:38:55.032Z,1058.88
2023-08-27T10:41:29.931Z,1043.25
2023-08-27T10:43:57.450Z,1171.70
2023-08-27T10:46:26.075Z,1193.75
2023-08-27T10:48:54.430Z,1204.07
2023-08-27T10:51:22.572Z,594.17
2023-08-27T10:53:50.252Z,546.90
2023-08-27T10:56:27.235Z,609.08
2023-08-27T10:58:54.505Z,578.60
2023-08-27T11:01:26.156Z,770.17
2023-08-27T11:03:53.411Z,671.92
2023-08-27T11:06:21.380Z,788.00
2023-08-27T11:08:53.691Z,1036.28
2023-08-27T11:11:27.724Z,477.85
2023-08-27T11:14:19.122Z,412.97
2023-08-27T11:16:49.827Z,506.25
2023-08-27T11:19:26.709Z,333.80
2023-08-27T11:22:11.360Z,432.88
2023-08-27T11:24:44.423Z,656.55
2023-08-27T11:27:12.837Z,1228.18
2023-08-27T11:29:43.425Z,636.42
2023-08-27T11:32:11.661Z,664.17
2023-08-27T11:34:40.012Z,649.63
2023-08-27T11:37:07.507Z,644.53
2023-08-27T11:39:36.130Z,646.58
2023-08-27T11:42:04.664Z,504.10
2023-08-27T11:44:31.884Z,627.33
2023-08-27T11:47:08.495Z,680.47
2023-08-27T11:49:36.795Z,774.23
2023-08-27T11:52:04.810Z,820.22
2023-08-27T11:54:32.769Z,988.72
2023-08-27T11:57:00.372Z,587.05
2023-08-27T11:59:32.045Z,449.70
2023-08-27T12:01:59.779Z,521.57
2023-08-27T12:04:30.688Z,832.38
2023-08-27T12:07:01.822Z,844.05
2023-08-27T12:09:29.993Z,933.50
2023-08-27T12:12:01.670Z,918.08
2023-08-27T12:14:29.829Z,983.55
2023-08-27T12:17:09.070Z,1020.15
2023-08-27T12:19:37.628Z,995.70
2023-08-27T12:22:05.107Z,1020.30
2023-08-27T12:24:32.372Z,1211.88
2023-08-27T12:27:06.236Z,1156.60
2023-08-27T12:29:34.691Z,1203.25
2023-08-27T12:32:12.681Z,1195.10
2023-08-27T12:34:49.860Z,1242.85
2023-08-27T12:37:18.563Z,1216.13
2023-08-27T12:39:46.734Z,1221.80
2023-08-27T12:42:15.614Z,1249.45
2023-08-27T12:44:43.194Z,1205.78
2023-08-27T12:47:10.470Z,1224.28
2023-08-27T12:49:38.244Z,952.92
2023-08-27T12:52:06.196Z,939.60
2023-08-27T12:54:34.709Z,1107.13
2023-08-27T12:57:02.084Z,1232.43
2023-08-27T12:59:34.964Z,1252.73
2023-08-27T13:02:02.407Z,1210.07
2023-08-27T13:04:30.675Z,1147.07
2023-08-27T13:06:58.320Z,774.10
2023-08-27T13:09:25.633Z,1036.80
2023-08-27T13:11:53.618Z,634.67
2023-08-27T13:14:20.958Z,676.80
2023-08-27T13:16:48.868Z,378.38
2023-08-27T13:19:16.684Z,396.60
2023-08-27T13:21:47.873Z,518.13
2023-08-27T13:24:15.500Z,665.45
2023-08-27T13:26:42.757Z,594.92
2023-08-27T13:29:10.202Z,606.13
2023-08-27T13:31:38.618Z,644.63
2023-08-27T13:34:06.998Z,720.35
2023-08-27T13:36:34.267Z,811.92
2023-08-27T13:39:05.030Z,931.78
2023-08-27T13:41:36.659Z,649.40
2023-08-27T13:44:03.941Z,114.80
2023-08-27T13:46:31.335Z,307.08
2023-08-27T13:48:58.523Z,320.48
2023-08-27T13:51:25.906Z,353.23
2023-08-27T13:53:53.221Z,216.82
2023-08-27T13:56:21.103Z,322.55
2023-08-27T13:58:48.358Z,222.95
2023-08-27T14:01:15.676Z,417.80
2023-08-27T14:03:43.068Z,214.50
2023-08-27T14:06:10.316Z,409.90
2023-08-27T14:08:37.532Z,310.55
2023-08-27T14:11:04.831Z,205.40
2023-08-27T14:13:32.786Z,232.18
2023-08-27T14:16:00.202Z,225.60
2023-08-27T14:18:27.445Z,293.70
2023-08-27T14:20:54.635Z,214.27
2023-08-27T14:23:22.038Z,318.15
2023-08-27T14:25:49.263Z,240.05
2023-08-27T14:28:16.525Z,339.80
2023-08-27T14:30:44.051Z,243.93
2023-08-27T14:33:11.393Z,234.30
2023-08-27T14:35:38.655Z,269.42
2023-08-27T14:38:05.955Z,325.88
2023-08-27T14:40:33.248Z,379.13
2023-08-27T14:43:00.590Z,258.08
2023-08-27T14:45:27.776Z,287.23
2023-08-27T14:47:55.109Z,326.38
2023-08-27T14:50:22.483Z,256.20
2023-08-27T14:52:49.998Z,322.15
2023-08-27T14:55:17.325Z,342.83
2023-08-27T14:57:50.840Z,370.52
2023-08-27T15:00:18.884Z,336.67
2023-08-27T15:02:46.261Z,433.27
2023-08-27T15:05:14.086Z,414.38
2023-08-27T15:07:41.359Z,407.27
2023-08-27T15:10:08.748Z,327.63
2023-08-27T15:12:35.987Z,339.30
2023-08-27T15:15:03.743Z,355.43
2023-08-27T15:17:31.002Z,351.80
2023-08-27T15:19:58.322Z,356.40
2023-08-27T15:22:25.635Z,358.40
2023-08-27T15:24:53.022Z,340.05
2023-08-27T15:27:20.232Z,346.13
2023-08-27T15:29:47.595Z,357.15
2023-08-27T15:32:14.849Z,374.85
2023-08-27T15:34:43.271Z,397.58
2023-08-27T15:37:10.677Z,428.10
2023-08-27T15:39:37.932Z,420.80
2023-08-27T15:42:05.397Z,478.33
2023-08-27T15:44:32.641Z,494.60
2023-08-27T15:46:59.817Z,540.63
2023-08-27T15:49:27.118Z,609.57
2023-08-27T15:51:54.672Z,673.72
2023-08-27T15:54:22.262Z,920.10
2023-08-27T15:56:49.435Z,772.67
2023-08-27T15:59:16.730Z,782.38
2023-08-27T16:01:43.933Z,523.23
2023-08-27T16:04:11.268Z,577.08
2023-08-27T16:06:38.580Z,588.50
2023-08-27T16:09:05.993Z,642.30
2023-08-27T16:11:33.207Z,600.33
2023-08-27T16:14:01.715Z,692.85
2023-08-27T16:16:31.715Z,699.33
2023-08-27T16:18:59.253Z,715.53
2023-08-27T16:21:26.998Z,564.78
2023-08-27T16:23:54.249Z,660.33
2023-08-27T16:26:21.457Z,717.58
2023-08-27T16:28:48.895Z,786.67
2023-08-27T16:31:25.687Z,735.80
2023-08-27T16:33:53.492Z,760.97
2023-08-27T16:36:20.734Z,786.10
2023-08-27T16:38:47.976Z,794.42
2023-08-27T16:41:17.254Z,783.43
2023-08-27T16:43:44.518Z,738.38
2023-08-27T16:46:11.814Z,798.72
2023-08-27T16:48:39.089Z,731.40
2023-08-27T16:51:07.945Z,784.97
2023-08-27T16:53:35.199Z,623.28
2023-08-27T16:56:03.205Z,780.80
2023-08-27T16:58:30.490Z,797.90
2023-08-27T17:00:57.752Z,836.17
2023-08-27T17:03:25.090Z,838.00
2023-08-27T17:05:59.878Z,918.72
2023-08-27T17:08:28.182Z,915.03
2023-08-27T17:10:55.522Z,988.00
2023-08-27T17:13:22.762Z,983.95
2023-08-27T17:15:51.210Z,928.88
2023-08-27T17:18:18.557Z,983.97
2023-08-27T17:20:45.990Z,954.72
2023-08-27T17:23:13.257Z,963.75
2023-08-27T17:25:40.594Z,976.72
2023-08-27T17:28:07.933Z,969.93
2023-08-27T17:30:35.621Z,994.03
2023-08-27T17:33:07.306Z,1113.77
2023-08-27T17:35:37.587Z,1153.67
2023-08-27T17:38:05.266Z,1173.57
2023-08-27T17:40:32.466Z,1142.83
2023-08-27T17:42:59.852Z,1036.78
2023-08-27T17:45:27.510Z,1025.68
2023-08-27T17:48:08.797Z,1162.43
2023-08-27T17:50:36.592Z,1199.85
2023-08-27T17:53:04.296Z,1241.25
2023-08-27T17:55:31.517Z,1231.80
2023-08-27T17:57:59.139Z,743.65
2023-08-27T18:00:26.770Z,880.23
2023-08-27T18:02:55.132Z,1008.03
2023-08-27T18:05:22.482Z,967.47
2023-08-27T18:07:49.770Z,1148.47
2023-08-27T18:10:17.009Z,1078.30
2023-08-27T18:12:44.239Z,912.42
2023-08-27T18:15:11.569Z,1143.30
2023-08-27T18:17:38.843Z,1061.25
2023-08-27T18:20:06.441Z,892.27
2023-08-27T18:22:34.079Z,938.30
2023-08-27T18:25:01.277Z,1199.88
2023-08-27T18:27:28.636Z,1230.53
2023-08-27T18:29:55.865Z,1199.60
2023-08-27T18:32:23.129Z,1168.45
2023-08-27T18:34:50.503Z,1126.95
2023-08-27T18:37:17.870Z,1184.18
2023-08-27T18:39:45.106Z,1114.90
2023-08-27T18:42:20.239Z,1204.22
2023-08-27T18:44:55.152Z,1227.37
2023-08-27T18:47:22.437Z,1170.30
2023-08-27T18:49:49.716Z,1239.15
2023-08-27T18:52:17.022Z,1259.20
2023-08-27T18:54:44.378Z,870.60
2023-08-27T18:57:11.578Z,839.70
2023-08-27T18:59:39.664Z,726.28
2023-08-27T19:02:09.280Z,799.90
2023-08-27T19:04:36.582Z,895.72
2023-08-27T19:07:03.889Z,647.37
2023-08-27T19:09:31.078Z,648.15
2023-08-27T19:12:00.171Z,729.38
2023-08-27T19:14:27.433Z,892.17
2023-08-27T19:16:54.692Z,929.17
2023-08-27T19:19:22.313Z,692.90
2023-08-27T19:21:49.530Z,751.05
2023-08-27T19:24:16.724Z,712.80
2023-08-27T19:26:44.049Z,819.58
2023-08-27T19:29:11.333Z,886.72
2023-08-27T19:31:46.589Z,909.25
2023-08-27T19:34:14.836Z,752.97
2023-08-27T19:36:43.248Z,799.10
2023-08-27T19:39:11.319Z,748.20
2023-08-27T19:41:38.538Z,960.53
2023-08-27T19:44:05.984Z,1010.28
2023-08-27T19:46:33.267Z,1053.53
2023-08-27T19:49:00.625Z,1152.72
2023-08-27T19:51:28.061Z,1096.28
2023-08-27T19:53:55.705Z,709.17
2023-08-27T19:56:22.900Z,544.97
2023-08-27T19:58:50.116Z,594.45
2023-08-27T20:01:17.423Z,605.35
2023-08-27T20:03:44.691Z,779.78
2023-08-27T20:06:11.944Z,643.37
2023-08-27T20:08:39.254Z,669.33
2023-08-27T20:11:06.503Z,494.25
2023-08-27T20:13:33.974Z,574.75
2023-08-27T20:16:01.766Z,530.30
2023-08-27T20:18:28.997Z,578.63
2023-08-27T20:20:57.028Z,600.03
2023-08-27T20:23:24.476Z,875.88
2023-08-27T20:25:52.173Z,510.38
2023-08-27T20:28:19.821Z,914.30
2023-08-27T20:30:48.342Z,1220.97
2023-08-27T20:33:16.202Z,984.40
2023-08-27T20:35:43.628Z,808.23
2023-08-27T20:38:10.914Z,846.77
2023-08-27T20:40:38.972Z,764.63
2023-08-27T20:43:06.618Z,921.50
2023-08-27T20:45:36.106Z,862.25
2023-08-27T20:48:07.900Z,630.97
2023-08-27T20:50:36.031Z,843.08
2023-08-27T20:53:03.567Z,928.17
2023-08-27T20:55:31.082Z,710.72
2023-08-27T20:57:58.306Z,550.97
2023-08-27T21:00:25.625Z,651.88
2023-08-27T21:02:52.875Z,672.13
2023-08-27T21:05:20.368Z,760.25
2023-08-27T21:07:47.876Z,782.22
2023-08-27T21:10:15.206Z,819.10
2023-08-27T21:12:42.479Z,1016.13
2023-08-27T21:15:09.828Z,1201.17
2023-08-27T21:17:37.103Z,980.35
2023-08-27T21:20:04.834Z,1076.93
2023-08-27T21:22:32.361Z,1103.22
2023-08-27T21:24:59.767Z,1174.93
2023-08-27T21:27:27.177Z,1075.80
2023-08-27T21:29:54.482Z,891.50
2023-08-27T21:32:22.033Z,490.42
2023-08-27T21:34:49.326Z,596.55
2023-08-27T21:37:16.610Z,709.60
2023-08-27T21:39:43.891Z,354.92
2023-08-27T21:42:11.083Z,355.40
2023-08-27T21:44:39.949Z,401.90
2023-08-27T21:47:07.284Z,541.38
2023-08-27T21:49:34.481Z,620.97
2023-08-27T21:52:01.782Z,609.80
2023-08-27T21:54:30.502Z,429.63
2023-08-27T21:56:57.720Z,467.60
2023-08-27T21:59:24.939Z,288.55
2023-08-27T22:01:52.337Z,463.38
2023-08-27T22:04:20.576Z,530.92
2023-08-27T22:06:47.807Z,470.55
2023-08-27T22:09:14.982Z,499.80
2023-08-27T22:11:42.266Z,512.07
2023-08-27T22:14:09.481Z,534.35
2023-08-27T22:16:39.601Z,395.52
2023-08-27T22:19:21.969Z,677.38
2023-08-27T22:21:50.610Z,299.17
2023-08-27T22:24:17.904Z,287.50
2023-08-27T22:26:45.613Z,298.13
2023-08-27T22:29:12.852Z,340.27
2023-08-27T22:31:40.662Z,378.58
2023-08-27T22:34:07.890Z,368.67
2023-08-27T22:36:35.110Z,369.83
2023-08-27T22:39:02.357Z,348.05
2023-08-27T22:41:29.547Z,356.98
2023-08-27T22:43:56.808Z,336.77
2023-08-27T22:46:24.097Z,328.38
2023-08-27T22:48:51.356Z,352.73
2023-08-27T22:51:18.549Z,363.90
2023-08-27T22:53:45.815Z,345.52
2023-08-27T22:56:13.084Z,366.38
2023-08-27T22:58:40.267Z,362.25
2023-08-27T23:01:07.512Z,357.95
2023-08-27T23:03:34.802Z,487.60
2023-08-27T23:06:02.024Z,433.95
2023-08-27T23:08:29.213Z,339.55
2023-08-27T23:10:56.849Z,559.33
2023-08-27T23:13:24.634Z,403.87
2023-08-27T23:15:51.929Z,433.05
2023-08-27T23:18:19.386Z,732.53
2023-08-27T23:20:47.096Z,609.30
2023-08-27T23:23:15.095Z,798.77
2023-08-27T23:25:43.237Z,482.98
2023-08-27T23:28:10.472Z,305.53
2023-08-27T23:30:37.867Z,392.13
2023-08-27T23:33:06.723Z,520.33
2023-08-27T23:35:35.326Z,304.23
2023-08-27T23:38:02.618Z,469.25
2023-08-27T23:40:30.193Z,281.25
2023-08-27T23:42:57.475Z,237.20
2023-08-27T23:45:25.078Z,243.55
2023-08-27T23:47:52.452Z,323.58
2023-08-27T23:50:19.812Z,354.77
2023-08-27T23:52:47.201Z,529.40
2023-08-27T23:55:14.424Z,350.77
2023-08-27T23:57:41.650Z,316.08
